sensor_id;sensor_type;location;lat;lon;timestamp;pressure;altitude;pressure_sealevel;temperature;humidity
40994;BME280;26722;43.212;27.932;2023-03-18T00:01:58;55223.78;;;-146.72;39.17
40994;BME280;26722;43.212;27.932;2023-03-18T00:04:24;55217.44;;;-146.72;39.02
40994;BME280;26722;43.212;27.932;2023-03-18T00:06:50;55219.53;;;-146.72;38.92
40994;BME280;26722;43.212;27.932;2023-03-18T00:09:15;55209.00;;;-146.72;38.97
40994;BME280;26722;43.212;27.932;2023-03-18T00:11:42;55211.09;;;-146.72;38.61
40994;BME280;26722;43.212;27.932;2023-03-18T00:14:08;55204.75;;;-146.72;38.56
40994;BME280;26722;43.212;27.932;2023-03-18T00:16:35;55221.66;;;-146.72;38.26
40994;BME280;26722;43.212;27.932;2023-03-18T00:19:01;55217.44;;;-146.72;39.10
40994;BME280;26722;43.212;27.932;2023-03-18T00:21:28;55213.22;;;-146.72;39.11
40994;BME280;26722;43.212;27.932;2023-03-18T00:23:55;55217.44;;;-146.72;38.26
40994;BME280;26722;43.212;27.932;2023-03-18T00:26:24;55204.75;;;-146.72;38.67
40994;BME280;26722;43.212;27.932;2023-03-18T00:28:51;55190.00;;;-146.72;38.36
40994;BME280;26722;43.212;27.932;2023-03-18T00:31:16;55213.22;;;-146.72;39.21
40994;BME280;26722;43.212;27.932;2023-03-18T00:33:43;55211.09;;;-146.72;39.49
40994;BME280;26722;43.212;27.932;2023-03-18T00:36:11;55215.31;;;-146.72;39.38
40994;BME280;26722;43.212;27.932;2023-03-18T00:38:42;55240.66;;;-146.72;39.39
40994;BME280;26722;43.212;27.932;2023-03-18T00:41:09;55204.75;;;-146.72;39.33
40994;BME280;26722;43.212;27.932;2023-03-18T00:43:39;55209.00;;;-146.72;39.09
40994;BME280;26722;43.212;27.932;2023-03-18T00:46:19;55213.22;;;-146.72;39.42
40994;BME280;26722;43.212;27.932;2023-03-18T00:48:45;55192.09;;;-146.72;40.53
40994;BME280;26722;43.212;27.932;2023-03-18T00:51:12;55217.44;;;-146.72;39.29
40994;BME280;26722;43.212;27.932;2023-03-18T00:53:41;55194.22;;;-146.72;39.43
40994;BME280;26722;43.212;27.932;2023-03-18T00:56:09;55213.22;;;-146.72;38.73
40994;BME280;26722;43.212;27.932;2023-03-18T00:58:35;55196.31;;;-146.72;38.88
40994;BME280;26722;43.212;27.932;2023-03-18T01:01:03;55217.44;;;-146.72;39.38
40994;BME280;26722;43.212;27.932;2023-03-18T01:03:29;55225.88;;;-146.72;39.04
40994;BME280;26722;43.212;27.932;2023-03-18T01:05:54;55215.31;;;-146.72;39.72
40994;BME280;26722;43.212;27.932;2023-03-18T01:08:20;55234.31;;;-146.72;39.29
40994;BME280;26722;43.212;27.932;2023-03-18T01:10:47;55225.88;;;-146.72;39.71
40994;BME280;26722;43.212;27.932;2023-03-18T01:13:13;55202.66;;;-146.72;39.58
40994;BME280;26722;43.212;27.932;2023-03-18T01:15:39;55204.75;;;-146.72;39.64
40994;BME280;26722;43.212;27.932;2023-03-18T01:18:06;55213.22;;;-146.72;39.82
40994;BME280;26722;43.212;27.932;2023-03-18T01:20:33;55228.00;;;-146.72;40.31
40994;BME280;26722;43.212;27.932;2023-03-18T01:22:59;55225.88;;;-146.72;40.49
40994;BME280;26722;43.212;27.932;2023-03-18T01:25:25;55242.78;;;-146.72;40.76
40994;BME280;26722;43.212;27.932;2023-03-18T01:27:51;55232.22;;;-146.72;41.28
40994;BME280;26722;43.212;27.932;2023-03-18T01:30:18;55221.66;;;-146.72;41.61
40994;BME280;26722;43.212;27.932;2023-03-18T01:32:43;55211.09;;;-146.72;42.01
40994;BME280;26722;43.212;27.932;2023-03-18T01:35:10;55234.31;;;-146.72;41.51
40994;BME280;26722;43.212;27.932;2023-03-18T01:37:36;55221.66;;;-146.72;41.39
40994;BME280;26722;43.212;27.932;2023-03-18T01:40:02;55196.31;;;-146.72;41.34
40994;BME280;26722;43.212;27.932;2023-03-18T01:42:28;55213.22;;;-146.72;41.49
40994;BME280;26722;43.212;27.932;2023-03-18T01:47:40;55238.53;;;-146.72;41.43
40994;BME280;26722;43.212;27.932;2023-03-18T01:50:09;55221.66;;;-146.72;41.62
40994;BME280;26722;43.212;27.932;2023-03-18T01:52:35;55251.22;;;-146.72;41.94
40994;BME280;26722;43.212;27.932;2023-03-18T01:55:28;55225.88;;;-146.72;41.66
40994;BME280;26722;43.212;27.932;2023-03-18T01:57:55;55225.88;;;-146.72;41.37
40994;BME280;26722;43.212;27.932;2023-03-18T02:00:21;55238.53;;;-146.72;41.51
40994;BME280;26722;43.212;27.932;2023-03-18T02:02:49;55225.88;;;-146.72;41.56
40994;BME280;26722;43.212;27.932;2023-03-18T02:05:22;55228.00;;;-146.72;41.88
40994;BME280;26722;43.212;27.932;2023-03-18T02:07:49;55221.66;;;-146.72;42.05
40994;BME280;26722;43.212;27.932;2023-03-18T02:10:21;55225.88;;;-146.72;41.92
40994;BME280;26722;43.212;27.932;2023-03-18T02:12:50;55230.09;;;-146.72;42.00
40994;BME280;26722;43.212;27.932;2023-03-18T02:15:20;55238.53;;;-146.72;41.94
40994;BME280;26722;43.212;27.932;2023-03-18T02:17:52;55247.00;;;-146.72;42.55
40994;BME280;26722;43.212;27.932;2023-03-18T02:22:55;55221.66;;;-146.72;43.27
40994;BME280;26722;43.212;27.932;2023-03-18T02:25:47;55242.78;;;-146.72;42.24
40994;BME280;26722;43.212;27.932;2023-03-18T02:28:18;55234.31;;;-146.72;42.39
40994;BME280;26722;43.212;27.932;2023-03-18T02:30:50;55238.53;;;-146.72;42.46
40994;BME280;26722;43.212;27.932;2023-03-18T02:33:18;55242.78;;;-146.72;42.98
40994;BME280;26722;43.212;27.932;2023-03-18T02:35:47;55234.31;;;-146.72;43.47
40994;BME280;26722;43.212;27.932;2023-03-18T02:38:14;55230.09;;;-146.72;43.46
40994;BME280;26722;43.212;27.932;2023-03-18T02:40:41;55247.00;;;-146.72;43.66
40994;BME280;26722;43.212;27.932;2023-03-18T02:43:24;55209.00;;;-146.72;43.75
40994;BME280;26722;43.212;27.932;2023-03-18T02:48:25;55247.00;;;-146.72;43.52
40994;BME280;26722;43.212;27.932;2023-03-18T02:50:53;55242.78;;;-146.72;43.72
40994;BME280;26722;43.212;27.932;2023-03-18T02:53:19;55261.78;;;-146.72;43.67
40994;BME280;26722;43.212;27.932;2023-03-18T02:55:45;55247.00;;;-146.72;44.14
40994;BME280;26722;43.212;27.932;2023-03-18T02:58:11;55276.56;;;-146.72;45.18
40994;BME280;26722;43.212;27.932;2023-03-18T03:00:37;55266.00;;;-146.72;45.67
40994;BME280;26722;43.212;27.932;2023-03-18T03:03:02;55247.00;;;-146.72;45.15
40994;BME280;26722;43.212;27.932;2023-03-18T03:05:28;55255.44;;;-146.72;45.04
40994;BME280;26722;43.212;27.932;2023-03-18T03:07:54;55268.09;;;-146.72;44.61
40994;BME280;26722;43.212;27.932;2023-03-18T03:10:19;55261.78;;;-146.72;44.71
40994;BME280;26722;43.212;27.932;2023-03-18T03:12:45;55257.56;;;-146.72;44.95
40994;BME280;26722;43.212;27.932;2023-03-18T03:15:11;55249.09;;;-146.72;45.05
40994;BME280;26722;43.212;27.932;2023-03-18T03:17:37;55266.00;;;-146.72;45.27
40994;BME280;26722;43.212;27.932;2023-03-18T03:20:05;55259.66;;;-146.72;45.61
40994;BME280;26722;43.212;27.932;2023-03-18T03:22:31;55329.34;;;-146.72;45.80
40994;BME280;26722;43.212;27.932;2023-03-18T03:24:57;55272.31;;;-146.72;46.21
40994;BME280;26722;43.212;27.932;2023-03-18T03:27:23;55272.31;;;-146.72;46.36
40994;BME280;26722;43.212;27.932;2023-03-18T03:29:49;55287.09;;;-146.72;46.31
40994;BME280;26722;43.212;27.932;2023-03-18T03:32:14;55291.34;;;-146.72;46.78
40994;BME280;26722;43.212;27.932;2023-03-18T03:34:40;55289.22;;;-146.72;46.40
40994;BME280;26722;43.212;27.932;2023-03-18T03:37:07;55272.31;;;-146.72;46.29
40994;BME280;26722;43.212;27.932;2023-03-18T03:39:33;55251.22;;;-146.72;46.06
40994;BME280;26722;43.212;27.932;2023-03-18T03:41:58;55263.88;;;-146.72;46.22
40994;BME280;26722;43.212;27.932;2023-03-18T03:44:24;55255.44;;;-146.72;45.67
40994;BME280;26722;43.212;27.932;2023-03-18T03:46:50;55272.31;;;-146.72;46.01
40994;BME280;26722;43.212;27.932;2023-03-18T03:49:15;55280.78;;;-146.72;46.29
40994;BME280;26722;43.212;27.932;2023-03-18T03:51:41;55289.22;;;-146.72;46.51
40994;BME280;26722;43.212;27.932;2023-03-18T03:54:07;55266.00;;;-146.72;46.51
40994;BME280;26722;43.212;27.932;2023-03-18T03:56:32;55266.00;;;-146.72;45.87
40994;BME280;26722;43.212;27.932;2023-03-18T03:58:58;55293.44;;;-146.72;46.15
40994;BME280;26722;43.212;27.932;2023-03-18T04:01:24;55276.56;;;-146.72;46.38
40994;BME280;26722;43.212;27.932;2023-03-18T04:03:50;55270.22;;;-146.72;46.31
40994;BME280;26722;43.212;27.932;2023-03-18T04:06:16;55266.00;;;-146.72;47.17
40994;BME280;26722;43.212;27.932;2023-03-18T04:08:41;55285.00;;;-146.72;47.34
40994;BME280;26722;43.212;27.932;2023-03-18T04:11:07;55295.56;;;-146.72;46.75
40994;BME280;26722;43.212;27.932;2023-03-18T04:13:32;55291.34;;;-146.72;47.00
40994;BME280;26722;43.212;27.932;2023-03-18T04:15:58;55270.22;;;-146.72;47.12
40994;BME280;26722;43.212;27.932;2023-03-18T04:18:24;55274.44;;;-146.72;46.40
40994;BME280;26722;43.212;27.932;2023-03-18T04:20:50;55285.00;;;-146.72;46.84
40994;BME280;26722;43.212;27.932;2023-03-18T04:23:16;55268.09;;;-146.72;46.67
40994;BME280;26722;43.212;27.932;2023-03-18T04:25:42;55295.56;;;-146.72;46.64
40994;BME280;26722;43.212;27.932;2023-03-18T04:28:07;55261.78;;;-146.72;46.82
40994;BME280;26722;43.212;27.932;2023-03-18T04:30:33;55285.00;;;-146.72;46.78
40994;BME280;26722;43.212;27.932;2023-03-18T04:32:59;55272.31;;;-146.72;46.86
40994;BME280;26722;43.212;27.932;2023-03-18T04:35:27;55276.56;;;-146.72;46.56
40994;BME280;26722;43.212;27.932;2023-03-18T04:37:52;55280.78;;;-146.72;46.21
40994;BME280;26722;43.212;27.932;2023-03-18T04:40:19;55285.00;;;-146.72;46.13
40994;BME280;26722;43.212;27.932;2023-03-18T04:42:44;55274.44;;;-146.72;46.08
40994;BME280;26722;43.212;27.932;2023-03-18T04:45:13;55293.44;;;-146.72;45.87
40994;BME280;26722;43.212;27.932;2023-03-18T04:47:40;55280.78;;;-146.72;46.36
40994;BME280;26722;43.212;27.932;2023-03-18T04:50:06;55272.31;;;-146.72;46.67
40994;BME280;26722;43.212;27.932;2023-03-18T04:52:35;55272.31;;;-146.72;46.87
40994;BME280;26722;43.212;27.932;2023-03-18T04:55:00;55263.88;;;-146.72;46.78
40994;BME280;26722;43.212;27.932;2023-03-18T04:57:26;55268.09;;;-146.72;46.56
40994;BME280;26722;43.212;27.932;2023-03-18T04:59:52;55259.66;;;-146.72;45.75
40994;BME280;26722;43.212;27.932;2023-03-18T05:02:18;55280.78;;;-146.72;45.84
40994;BME280;26722;43.212;27.932;2023-03-18T05:04:44;55285.00;;;-146.72;45.90
40994;BME280;26722;43.212;27.932;2023-03-18T05:07:14;55291.34;;;-146.72;45.44
40994;BME280;26722;43.212;27.932;2023-03-18T05:09:40;55244.88;;;-146.72;46.67
40994;BME280;26722;43.212;27.932;2023-03-18T05:12:10;55266.00;;;-146.72;45.46
40994;BME280;26722;43.212;27.932;2023-03-18T05:14:37;55272.31;;;-146.72;45.83
40994;BME280;26722;43.212;27.932;2023-03-18T05:17:03;55280.78;;;-146.72;46.08
40994;BME280;26722;43.212;27.932;2023-03-18T05:19:29;55289.22;;;-146.72;45.60
40994;BME280;26722;43.212;27.932;2023-03-18T05:21:54;55238.53;;;-146.72;45.14
40994;BME280;26722;43.212;27.932;2023-03-18T05:24:20;55251.22;;;-146.72;45.47
40994;BME280;26722;43.212;27.932;2023-03-18T05:26:46;55242.78;;;-146.72;45.42
40994;BME280;26722;43.212;27.932;2023-03-18T05:29:12;55238.53;;;-146.72;45.46
40994;BME280;26722;43.212;27.932;2023-03-18T05:31:38;55255.44;;;-146.72;45.07
40994;BME280;26722;43.212;27.932;2023-03-18T05:34:03;55261.78;;;-146.72;44.85
40994;BME280;26722;43.212;27.932;2023-03-18T05:36:31;55225.88;;;-146.72;44.87
40994;BME280;26722;43.212;27.932;2023-03-18T05:38:57;55232.22;;;-146.72;45.10
40994;BME280;26722;43.212;27.932;2023-03-18T05:41:22;55251.22;;;-146.72;44.15
40994;BME280;26722;43.212;27.932;2023-03-18T05:43:48;55238.53;;;-146.72;44.44
40994;BME280;26722;43.212;27.932;2023-03-18T05:46:13;55259.66;;;-146.72;44.19
40994;BME280;26722;43.212;27.932;2023-03-18T05:48:39;55263.88;;;-146.72;44.79
40994;BME280;26722;43.212;27.932;2023-03-18T05:51:05;55238.53;;;-146.72;44.24
40994;BME280;26722;43.212;27.932;2023-03-18T05:53:31;55247.00;;;-146.72;44.49
40994;BME280;26722;43.212;27.932;2023-03-18T05:55:58;55230.09;;;-146.72;44.60
40994;BME280;26722;43.212;27.932;2023-03-18T05:58:24;55234.31;;;-146.72;44.97
40994;BME280;26722;43.212;27.932;2023-03-18T06:00:50;55238.53;;;-146.72;44.25
40994;BME280;26722;43.212;27.932;2023-03-18T06:03:16;55230.09;;;-146.72;44.09
40994;BME280;26722;43.212;27.932;2023-03-18T06:05:42;55234.31;;;-146.72;43.97
40994;BME280;26722;43.212;27.932;2023-03-18T06:08:07;55236.44;;;-146.72;44.17
40994;BME280;26722;43.212;27.932;2023-03-18T06:10:33;55217.44;;;-146.72;43.71
40994;BME280;26722;43.212;27.932;2023-03-18T06:12:59;55238.53;;;-146.72;43.21
40994;BME280;26722;43.212;27.932;2023-03-18T06:15:25;55225.88;;;-146.72;44.21
40994;BME280;26722;43.212;27.932;2023-03-18T06:17:50;55213.22;;;-146.72;43.71
40994;BME280;26722;43.212;27.932;2023-03-18T06:20:16;55242.78;;;-146.72;43.66
40994;BME280;26722;43.212;27.932;2023-03-18T06:22:44;55230.09;;;-146.72;43.41
40994;BME280;26722;43.212;27.932;2023-03-18T06:25:14;55221.66;;;-146.72;43.39
40994;BME280;26722;43.212;27.932;2023-03-18T06:27:40;55221.66;;;-146.72;42.89
40994;BME280;26722;43.212;27.932;2023-03-18T06:30:06;55238.53;;;-146.72;43.15
40994;BME280;26722;43.212;27.932;2023-03-18T06:32:32;55213.22;;;-146.72;43.02
40994;BME280;26722;43.212;27.932;2023-03-18T06:34:58;55230.09;;;-146.72;43.32
40994;BME280;26722;43.212;27.932;2023-03-18T06:37:24;55238.53;;;-146.72;44.56
40994;BME280;26722;43.212;27.932;2023-03-18T06:39:49;55228.00;;;-146.72;44.64
40994;BME280;26722;43.212;27.932;2023-03-18T06:42:15;55225.88;;;-146.72;44.96
40994;BME280;26722;43.212;27.932;2023-03-18T06:44:40;55221.66;;;-146.72;45.29
40994;BME280;26722;43.212;27.932;2023-03-18T06:47:08;55217.44;;;-146.72;45.45
40994;BME280;26722;43.212;27.932;2023-03-18T06:49:34;55223.78;;;-146.72;45.79
40994;BME280;26722;43.212;27.932;2023-03-18T06:52:00;55228.00;;;-146.72;45.01
40994;BME280;26722;43.212;27.932;2023-03-18T06:54:26;55225.88;;;-146.72;44.89
40994;BME280;26722;43.212;27.932;2023-03-18T06:56:53;55215.31;;;-146.72;44.70
40994;BME280;26722;43.212;27.932;2023-03-18T06:59:18;55187.88;;;-146.72;45.05
40994;BME280;26722;43.212;27.932;2023-03-18T07:01:45;55213.22;;;-146.72;45.13
40994;BME280;26722;43.212;27.932;2023-03-18T07:04:11;55209.00;;;-146.72;45.18
40994;BME280;26722;43.212;27.932;2023-03-18T07:06:36;55211.09;;;-146.72;45.20
40994;BME280;26722;43.212;27.932;2023-03-18T07:09:02;55209.00;;;-146.72;45.38
40994;BME280;26722;43.212;27.932;2023-03-18T07:11:28;55211.09;;;-146.72;44.97
40994;BME280;26722;43.212;27.932;2023-03-18T07:13:54;55209.00;;;-146.72;44.71
40994;BME280;26722;43.212;27.932;2023-03-18T07:16:20;55198.44;;;-146.72;45.83
40994;BME280;26722;43.212;27.932;2023-03-18T07:18:45;55211.09;;;-146.72;46.16
40994;BME280;26722;43.212;27.932;2023-03-18T07:21:11;55211.09;;;-146.72;45.95
40994;BME280;26722;43.212;27.932;2023-03-18T07:23:37;55228.00;;;-146.72;46.03
40994;BME280;26722;43.212;27.932;2023-03-18T07:26:03;55204.75;;;-146.72;46.30
40994;BME280;26722;43.212;27.932;2023-03-18T07:28:29;55217.44;;;-146.72;46.33
40994;BME280;26722;43.212;27.932;2023-03-18T07:30:54;55215.31;;;-146.72;46.68
40994;BME280;26722;43.212;27.932;2023-03-18T07:33:20;55219.53;;;-146.72;46.56
40994;BME280;26722;43.212;27.932;2023-03-18T07:35:46;55200.53;;;-146.72;46.25
40994;BME280;26722;43.212;27.932;2023-03-18T07:38:12;55179.44;;;-146.72;45.81
40994;BME280;26722;43.212;27.932;2023-03-18T07:40:38;55194.22;;;-146.72;45.27
40994;BME280;26722;43.212;27.932;2023-03-18T07:43:04;55204.75;;;-146.72;45.33
40994;BME280;26722;43.212;27.932;2023-03-18T07:45:30;55181.53;;;-146.72;45.30
40994;BME280;26722;43.212;27.932;2023-03-18T07:47:56;55183.66;;;-146.72;45.32
40994;BME280;26722;43.212;27.932;2023-03-18T07:50:21;55192.09;;;-146.72;45.83
40994;BME280;26722;43.212;27.932;2023-03-18T07:52:47;55204.75;;;-146.72;46.95
40994;BME280;26722;43.212;27.932;2023-03-18T07:55:12;55187.88;;;-146.72;47.43
40994;BME280;26722;43.212;27.932;2023-03-18T07:57:39;55209.00;;;-146.72;47.38
40994;BME280;26722;43.212;27.932;2023-03-18T08:00:06;55215.31;;;-146.72;47.43
40994;BME280;26722;43.212;27.932;2023-03-18T08:02:32;55204.75;;;-146.72;47.51
40994;BME280;26722;43.212;27.932;2023-03-18T08:05:00;55209.00;;;-146.72;47.79
40994;BME280;26722;43.212;27.932;2023-03-18T08:07:26;55204.75;;;-146.72;48.58
40994;BME280;26722;43.212;27.932;2023-03-18T08:09:51;55187.88;;;-146.72;47.99
40994;BME280;26722;43.212;27.932;2023-03-18T08:12:17;55200.53;;;-146.72;47.51
40994;BME280;26722;43.212;27.932;2023-03-18T08:14:42;55192.09;;;-146.72;48.22
40994;BME280;26722;43.212;27.932;2023-03-18T08:17:08;55187.88;;;-146.72;48.51
40994;BME280;26722;43.212;27.932;2023-03-18T08:19:34;55177.31;;;-146.72;49.01
40994;BME280;26722;43.212;27.932;2023-03-18T08:22:00;55187.88;;;-146.72;48.92
40994;BME280;26722;43.212;27.932;2023-03-18T08:24:25;55187.88;;;-146.72;48.64
40994;BME280;26722;43.212;27.932;2023-03-18T08:26:51;55198.44;;;-146.72;48.55
40994;BME280;26722;43.212;27.932;2023-03-18T08:29:17;55185.75;;;-146.72;49.01
40994;BME280;26722;43.212;27.932;2023-03-18T08:31:42;55185.75;;;-146.72;48.67
40994;BME280;26722;43.212;27.932;2023-03-18T08:34:07;55168.88;;;-146.72;48.35
40994;BME280;26722;43.212;27.932;2023-03-18T08:36:33;55162.53;;;-146.72;48.35
40994;BME280;26722;43.212;27.932;2023-03-18T08:38:59;55173.09;;;-146.72;48.62
40994;BME280;26722;43.212;27.932;2023-03-18T08:41:24;55185.75;;;-146.72;49.13
40994;BME280;26722;43.212;27.932;2023-03-18T08:43:51;55177.31;;;-146.72;49.34
40994;BME280;26722;43.212;27.932;2023-03-18T08:46:17;55162.53;;;-146.72;48.99
40994;BME280;26722;43.212;27.932;2023-03-18T08:48:43;55154.09;;;-146.72;48.56
40994;BME280;26722;43.212;27.932;2023-03-18T08:51:09;55170.97;;;-146.72;48.92
40994;BME280;26722;43.212;27.932;2023-03-18T08:53:38;55181.53;;;-146.72;49.98
40994;BME280;26722;43.212;27.932;2023-03-18T08:56:04;55192.09;;;-146.72;50.56
40994;BME280;26722;43.212;27.932;2023-03-18T08:58:33;55179.44;;;-146.72;51.26
40994;BME280;26722;43.212;27.932;2023-03-18T09:00:59;55196.31;;;-146.72;51.45
40994;BME280;26722;43.212;27.932;2023-03-18T09:03:27;55183.66;;;-146.72;51.72
40994;BME280;26722;43.212;27.932;2023-03-18T09:05:56;55192.09;;;-146.72;51.66
40994;BME280;26722;43.212;27.932;2023-03-18T09:08:22;55173.09;;;-146.72;51.13
40994;BME280;26722;43.212;27.932;2023-03-18T09:10:50;55166.75;;;-146.72;51.08
40994;BME280;26722;43.212;27.932;2023-03-18T09:13:17;55170.97;;;-146.72;51.19
40994;BME280;26722;43.212;27.932;2023-03-18T09:15:43;55166.75;;;-146.72;50.76
40994;BME280;26722;43.212;27.932;2023-03-18T09:18:08;55179.44;;;-146.72;50.40
40994;BME280;26722;43.212;27.932;2023-03-18T09:20:34;55162.53;;;-146.72;50.00
40994;BME280;26722;43.212;27.932;2023-03-18T09:23:00;55162.53;;;-146.72;50.43
40994;BME280;26722;43.212;27.932;2023-03-18T09:25:26;55156.22;;;-146.72;50.59
40994;BME280;26722;43.212;27.932;2023-03-18T09:27:52;55170.97;;;-146.72;50.25
40994;BME280;26722;43.212;27.932;2023-03-18T09:30:18;55139.31;;;-146.72;49.76
40994;BME280;26722;43.212;27.932;2023-03-18T09:32:44;55151.97;;;-146.72;50.48
40994;BME280;26722;43.212;27.932;2023-03-18T09:35:10;55162.53;;;-146.72;50.39
40994;BME280;26722;43.212;27.932;2023-03-18T09:37:36;55166.75;;;-146.72;50.75
40994;BME280;26722;43.212;27.932;2023-03-18T09:40:03;55162.53;;;-146.72;50.25
40994;BME280;26722;43.212;27.932;2023-03-18T09:42:48;55158.31;;;-146.72;50.32
40994;BME280;26722;43.212;27.932;2023-03-18T09:45:24;55158.31;;;-146.72;51.16
40994;BME280;26722;43.212;27.932;2023-03-18T09:51:04;55162.53;;;-146.72;52.15
40994;BME280;26722;43.212;27.932;2023-03-18T09:53:45;55164.66;;;-146.72;52.08
40994;BME280;26722;43.212;27.932;2023-03-18T09:56:17;55158.31;;;-146.72;52.34
40994;BME280;26722;43.212;27.932;2023-03-18T09:59:15;55158.31;;;-146.72;52.42
40994;BME280;26722;43.212;27.932;2023-03-18T10:01:42;55154.09;;;-146.72;51.47
40994;BME280;26722;43.212;27.932;2023-03-18T10:04:25;55170.97;;;-146.72;52.21
40994;BME280;26722;43.212;27.932;2023-03-18T10:07:02;55168.88;;;-146.72;52.26
40994;BME280;26722;43.212;27.932;2023-03-18T10:09:38;55177.31;;;-146.72;52.82
40994;BME280;26722;43.212;27.932;2023-03-18T10:12:36;55166.75;;;-146.72;53.49
40994;BME280;26722;43.212;27.932;2023-03-18T10:15:23;55183.66;;;-146.72;54.09
40994;BME280;26722;43.212;27.932;2023-03-18T10:18:10;55177.31;;;-146.72;54.35
40994;BME280;26722;43.212;27.932;2023-03-18T10:26:29;55162.53;;;-146.72;54.02
40994;BME280;26722;43.212;27.932;2023-03-18T10:29:20;55149.88;;;-146.72;53.10
40994;BME280;26722;43.212;27.932;2023-03-18T10:34:57;55162.53;;;-146.72;52.09
40994;BME280;26722;43.212;27.932;2023-03-18T10:37:53;55149.88;;;-146.72;52.75
40994;BME280;26722;43.212;27.932;2023-03-18T10:40:21;55154.09;;;-146.72;52.22
40994;BME280;26722;43.212;27.932;2023-03-18T10:42:50;55151.97;;;-146.72;52.65
40994;BME280;26722;43.212;27.932;2023-03-18T10:45:29;55175.22;;;-146.72;53.82
40994;BME280;26722;43.212;27.932;2023-03-18T10:48:00;55196.31;;;-146.72;55.27
40994;BME280;26722;43.212;27.932;2023-03-18T10:53:15;55196.31;;;-146.72;55.79
40994;BME280;26722;43.212;27.932;2023-03-18T10:56:04;55179.44;;;-146.72;56.09
40994;BME280;26722;43.212;27.932;2023-03-18T10:58:30;55206.88;;;-146.72;56.01
40994;BME280;26722;43.212;27.932;2023-03-18T11:00:56;55192.09;;;-146.72;56.29
40994;BME280;26722;43.212;27.932;2023-03-18T11:03:26;55181.53;;;-146.72;55.81
40994;BME280;26722;43.212;27.932;2023-03-18T11:05:55;55204.75;;;-146.72;55.66
40994;BME280;26722;43.212;27.932;2023-03-18T11:11:09;55177.31;;;-146.72;55.64
40994;BME280;26722;43.212;27.932;2023-03-18T11:13:38;55175.22;;;-146.72;55.82
40994;BME280;26722;43.212;27.932;2023-03-18T11:16:03;55187.88;;;-146.72;55.80
40994;BME280;26722;43.212;27.932;2023-03-18T11:18:29;55177.31;;;-146.72;55.59
40994;BME280;26722;43.212;27.932;2023-03-18T11:20:58;55181.53;;;-146.72;55.77
40994;BME280;26722;43.212;27.932;2023-03-18T11:23:35;55177.31;;;-146.72;55.96
40994;BME280;26722;43.212;27.932;2023-03-18T11:29:40;55190.00;;;-146.72;56.35
40994;BME280;26722;43.212;27.932;2023-03-18T11:32:31;55162.53;;;-146.72;56.53
40994;BME280;26722;43.212;27.932;2023-03-18T11:35:03;55204.75;;;-146.72;55.86
40994;BME280;26722;43.212;27.932;2023-03-18T11:37:32;55202.66;;;-146.72;56.09
40994;BME280;26722;43.212;27.932;2023-03-18T11:40:07;55179.44;;;-146.72;56.43
40994;BME280;26722;43.212;27.932;2023-03-18T11:42:42;55177.31;;;-146.72;56.17
40994;BME280;26722;43.212;27.932;2023-03-18T11:47:46;55170.97;;;-146.72;55.84
40994;BME280;26722;43.212;27.932;2023-03-18T11:50:19;55149.88;;;-146.72;56.20
40994;BME280;26722;43.212;27.932;2023-03-18T11:53:00;55179.44;;;-146.72;56.18
40994;BME280;26722;43.212;27.932;2023-03-18T11:55:49;55181.53;;;-146.72;56.42
40994;BME280;26722;43.212;27.932;2023-03-18T12:02:17;55179.44;;;-146.72;57.93
40994;BME280;26722;43.212;27.932;2023-03-18T12:10:25;55190.00;;;-146.72;58.61
40994;BME280;26722;43.212;27.932;2023-03-18T12:20:51;55185.75;;;-146.72;58.79
40994;BME280;26722;43.212;27.932;2023-03-18T12:23:49;55158.31;;;-146.72;59.08
40994;BME280;26722;43.212;27.932;2023-03-18T12:26:16;55181.53;;;-146.72;59.21
40994;BME280;26722;43.212;27.932;2023-03-18T12:45:22;55185.75;;;-146.72;60.71
40994;BME280;26722;43.212;27.932;2023-03-18T12:47:59;55192.09;;;-146.72;60.58
40994;BME280;26722;43.212;27.932;2023-03-18T12:50:38;55170.97;;;-146.72;61.19
40994;BME280;26722;43.212;27.932;2023-03-18T12:53:21;55198.44;;;-146.72;61.70
40994;BME280;26722;43.212;27.932;2023-03-18T12:55:54;55177.31;;;-146.72;61.66
40994;BME280;26722;43.212;27.932;2023-03-18T12:58:27;55183.66;;;-146.72;62.03
40994;BME280;26722;43.212;27.932;2023-03-18T13:00:59;55181.53;;;-146.72;62.39
40994;BME280;26722;43.212;27.932;2023-03-18T13:03:36;55177.31;;;-146.72;63.03
40994;BME280;26722;43.212;27.932;2023-03-18T13:08:45;55204.75;;;-146.72;63.60
40994;BME280;26722;43.212;27.932;2023-03-18T13:16:52;55213.22;;;-146.72;64.45
40994;BME280;26722;43.212;27.932;2023-03-18T13:19:19;55192.09;;;-146.72;64.78
40994;BME280;26722;43.212;27.932;2023-03-18T13:21:51;55211.09;;;-146.72;65.14
40994;BME280;26722;43.212;27.932;2023-03-18T13:24:46;55215.31;;;-146.72;65.73
40994;BME280;26722;43.212;27.932;2023-03-18T13:30:48;55200.53;;;-146.72;66.00
40994;BME280;26722;43.212;27.932;2023-03-18T13:36:19;55196.31;;;-146.72;67.23
40994;BME280;26722;43.212;27.932;2023-03-18T13:44:27;55204.75;;;-146.72;66.72
40994;BME280;26722;43.212;27.932;2023-03-18T13:47:04;55190.00;;;-146.72;66.81
40994;BME280;26722;43.212;27.932;2023-03-18T13:49:32;55213.22;;;-146.72;67.48
40994;BME280;26722;43.212;27.932;2023-03-18T13:51:58;55236.44;;;-146.72;67.70
40994;BME280;26722;43.212;27.932;2023-03-18T13:54:36;55230.09;;;-146.72;67.99
40994;BME280;26722;43.212;27.932;2023-03-18T13:59:48;55215.31;;;-146.72;67.64
40994;BME280;26722;43.212;27.932;2023-03-18T14:04:50;55221.66;;;-146.72;67.71
40994;BME280;26722;43.212;27.932;2023-03-18T14:07:18;55225.88;;;-146.72;68.21
40994;BME280;26722;43.212;27.932;2023-03-18T14:17:43;55236.44;;;-146.72;68.42